Time;durP1;ratioP1;P1;durP2;ratioP2;P2;SDS_P1;SDS_P2;PMS_P1;PMS_P2;Temp;Humidity;BMP_temperature;BMP_pressure;BME280_temperature;BME280_humidity;BME280_pressure;Samples;Min_cycle;Max_cycle;Signal;HPM_P1;HPM_P2
2021/12/22 00:00:20;;;;;;;;;;;-2.80;99.90;;;;;;5013976;28;20356;-67
2021/12/22 00:02:48;;;;;;;;;;;-3.40;99.90;;;;;;5015518;28;19912;-69
2021/12/22 00:05:16;;;;;;;;;;;-3.50;99.90;;;;;;5014769;28;20359;-66
2021/12/22 00:07:42;;;;;;;;;;;-3.50;99.90;;;;;;4996717;28;19955;-68
2021/12/22 00:10:07;;;;;;;;;;;;;;;;;;5013342;28;19906;-66
2021/12/22 00:12:33;;;;;;;;;;;-3.90;99.90;;;;;;5014513;28;19905;-67
2021/12/22 00:14:58;;;;;;;;;;;-4.20;99.90;;;;;;5014005;28;19917;-68
2021/12/22 00:17:24;;;;;;;;;;;-4.60;99.90;;;;;;5014235;28;19906;-68
2021/12/22 00:19:50;;;;;;;;;;;;;;;;;;5013738;28;19914;-67
2021/12/22 00:22:15;;;;;;;;;;;-3.50;99.90;;;;;;5014441;28;19928;-68
2021/12/22 00:24:41;;;;;;;;;;;-3.70;99.90;;;;;;5014067;28;19996;-68
2021/12/22 00:27:07;;;;;;;;;;;-5.40;99.90;;;;;;5013765;28;20012;-67
2021/12/22 00:29:32;;;;;;;;;;;-4.20;99.90;;;;;;5013271;28;19909;-68
2021/12/22 00:32:10;;;;;;;;;;;;;;;;;;5022617;28;19917;-67
2021/12/22 00:34:36;;;;;;;;;;;;;;;;;;5028041;28;19905;-67
2021/12/22 00:37:01;;;;;;;;;;;-4.80;99.90;;;;;;5021917;28;19906;-69
2021/12/22 00:39:27;;;;;;;;;;;;;;;;;;5022460;28;19905;-66
2021/12/22 00:41:53;;;;;;;;;;;-4.10;99.90;;;;;;5020511;28;20591;-66
2021/12/22 00:44:18;;;;;;;;;;;-4.40;99.90;;;;;;5021681;28;20028;-67
2021/12/22 00:46:44;;;;;;;;;;;-4.70;99.90;;;;;;5021209;28;19914;-66
2021/12/22 00:49:10;;;;;;;;;;;;;;;;;;5018745;28;20236;-66
2021/12/22 00:51:35;;;;;;;;;;;-4.40;99.90;;;;;;5015949;28;19905;-68
2021/12/22 00:54:01;;;;;;;;;;;-5.00;99.90;;;;;;5015356;28;19914;-65
2021/12/22 00:56:26;;;;;;;;;;;-4.10;99.90;;;;;;5015229;28;19913;-67
2021/12/22 00:58:52;;;;;;;;;;;-4.30;99.90;;;;;;5013438;28;19952;-68
2021/12/22 01:01:17;;;;;;;;;;;-5.10;99.90;;;;;;5012993;28;19910;-67
2021/12/22 01:03:43;;;;;;;;;;;;;;;;;;5013643;28;19909;-67
2021/12/22 01:06:09;;;;;;;;;;;-4.90;99.90;;;;;;5013435;28;19952;-67
2021/12/22 01:08:34;;;;;;;;;;;-4.50;99.90;;;;;;5013286;28;19960;-67
2021/12/22 01:11:00;;;;;;;;;;;-2.60;99.90;;;;;;5012667;28;19913;-68
2021/12/22 01:13:27;;;;;;;;;;;-4.40;99.90;;;;;;4995171;28;19991;-66
2021/12/22 01:15:52;;;;;;;;;;;;;;;;;;5012626;28;19909;-68
2021/12/22 01:18:29;;;;;;;;;;;-3.40;99.90;;;;;;5012573;28;19928;-66
2021/12/22 01:23:23;;;;;;;;;;;-4.90;99.90;;;;;;5012498;28;19917;-69
2021/12/22 01:25:49;;;;;;;;;;;-4.40;99.90;;;;;;5012591;28;19913;-67
2021/12/22 01:28:15;;;;;;;;;;;-4.80;99.90;;;;;;5012160;28;19909;-67
2021/12/22 01:30:45;;;;;;;;;;;-4.20;99.90;;;;;;5011323;28;20072;-67
2021/12/22 01:33:11;;;;;;;;;;;-5.20;99.90;;;;;;5011791;28;19916;-66
2021/12/22 01:35:38;;;;;;;;;;;-4.60;99.90;;;;;;5012532;28;19905;-67
2021/12/22 01:38:04;;;;;;;;;;;;;;;;;;5011942;28;19941;-68
2021/12/22 01:40:30;;;;;;;;;;;;;;;;;;5012182;28;19950;-69
2021/12/22 01:42:56;;;;;;;;;;;-4.60;99.90;;;;;;5012279;28;20027;-68
2021/12/22 01:45:54;;;;;;;;;;;-4.40;99.90;;;;;;5013579;28;20378;-68
2021/12/22 01:51:26;;;;;;;;;;;-4.30;99.90;;;;;;5012808;28;19915;-67
2021/12/22 01:53:56;;;;;;;;;;;-6.90;99.90;;;;;;5012299;28;19992;-67
2021/12/22 01:56:25;;;;;;;;;;;-4.70;99.90;;;;;;5012187;28;19913;-69
2021/12/22 01:58:51;;;;;;;;;;;-5.20;99.90;;;;;;5011478;28;19913;-67
2021/12/22 02:01:17;;;;;;;;;;;-4.60;99.90;;;;;;5011532;28;20016;-68
2021/12/22 02:03:43;;;;;;;;;;;-5.10;99.90;;;;;;4994405;28;20407;-67
2021/12/22 02:06:09;;;;;;;;;;;-4.40;99.90;;;;;;4994656;28;19920;-68
2021/12/22 02:08:35;;;;;;;;;;;-4.70;99.90;;;;;;5012269;28;19976;-66
2021/12/22 02:11:02;;;;;;;;;;;-5.60;99.90;;;;;;4994895;28;19991;-65
2021/12/22 02:13:32;;;;;;;;;;;-4.40;99.90;;;;;;5012766;28;19962;-66
2021/12/22 02:16:06;;;;;;;;;;;-5.90;99.90;;;;;;5011355;28;20363;-68
2021/12/22 02:18:36;;;;;;;;;;;-4.90;99.90;;;;;;5002255;28;19937;-67
2021/12/22 02:21:02;;;;;;;;;;;-4.60;99.90;;;;;;5011229;28;19916;-66
2021/12/22 02:23:28;;;;;;;;;;;-5.00;99.90;;;;;;5014187;28;19916;-68
2021/12/22 02:25:58;;;;;;;;;;;-4.40;99.90;;;;;;5015483;28;19913;-67
2021/12/22 02:28:29;;;;;;;;;;;-5.60;99.90;;;;;;5011577;28;19991;-66
2021/12/22 02:30:54;;;;;;;;;;;-5.00;99.90;;;;;;5011371;28;19920;-65
2021/12/22 02:38:30;;;;;;;;;;;-5.60;99.90;;;;;;5050769;28;19909;-62
2021/12/22 02:40:56;;;;;;;;;;;-6.00;99.90;;;;;;5052842;28;19908;-63
2021/12/22 02:43:24;;;;;;;;;;;-5.60;99.90;;;;;;5039969;28;19913;-62
2021/12/22 02:45:50;;;;;;;;;;;-5.70;99.90;;;;;;5035336;28;20451;-61
2021/12/22 02:48:16;;;;;;;;;;;-4.80;99.90;;;;;;5034633;28;20294;-62
2021/12/22 02:50:42;;;;;;;;;;;-3.60;99.90;;;;;;5035095;28;19911;-63
2021/12/22 02:53:16;;;;;;;;;;;-5.90;99.90;;;;;;5034834;28;19905;-62
2021/12/22 02:56:00;;;;;;;;;;;-4.50;99.90;;;;;;5035006;28;20402;-62
2021/12/22 02:58:41;;;;;;;;;;;-4.90;99.90;;;;;;5035104;28;20031;-63
2021/12/22 03:03:58;;;;;;;;;;;-4.90;99.90;;;;;;5035768;28;20351;-62
2021/12/22 03:06:45;;;;;;;;;;;-4.90;99.90;;;;;;5034975;28;19913;-62
2021/12/22 03:09:24;;;;;;;;;;;-4.80;99.90;;;;;;5034364;28;19913;-62
2021/12/22 03:11:50;;;;;;;;;;;-4.70;99.90;;;;;;5034359;28;20317;-61
2021/12/22 03:14:16;;;;;;;;;;;-6.10;99.90;;;;;;5034796;28;19916;-61
2021/12/22 03:16:44;;;;;;;;;;;-4.60;99.90;;;;;;5033479;28;19909;-61
2021/12/22 03:19:12;;;;;;;;;;;-4.50;99.90;;;;;;5033835;28;19913;-61
2021/12/22 03:21:38;;;;;;;;;;;;;;;;;;5034782;28;19905;-61
2021/12/22 03:24:04;;;;;;;;;;;-4.80;99.90;;;;;;5034663;28;19912;-61
2021/12/22 03:26:29;;;;;;;;;;;-4.20;99.90;;;;;;5034539;28;19913;-62
2021/12/22 03:28:55;;;;;;;;;;;-5.20;99.90;;;;;;5033461;28;19905;-62
2021/12/22 03:31:21;;;;;;;;;;;;;;;;;;5034647;28;19952;-62
2021/12/22 03:33:46;;;;;;;;;;;-5.50;99.90;;;;;;5034688;28;20535;-63
2021/12/22 03:36:12;;;;;;;;;;;-6.10;99.90;;;;;;5034857;28;19920;-63
2021/12/22 03:38:38;;;;;;;;;;;-5.40;99.90;;;;;;5034264;28;19905;-63
2021/12/22 03:41:05;;;;;;;;;;;-4.90;99.90;;;;;;5033917;28;19909;-61
2021/12/22 03:43:31;;;;;;;;;;;-5.40;99.90;;;;;;5034685;28;19917;-63
2021/12/22 03:45:56;;;;;;;;;;;-4.40;99.90;;;;;;5034258;28;19992;-62
2021/12/22 03:48:24;;;;;;;;;;;-5.40;99.90;;;;;;5016532;28;19913;-62
2021/12/22 03:50:49;;;;;;;;;;;-4.50;99.90;;;;;;5034125;28;19905;-62
2021/12/22 03:53:15;;;;;;;;;;;;;;;;;;5033495;28;19975;-62
2021/12/22 03:55:41;;;;;;;;;;;-5.20;99.90;;;;;;5033946;28;19916;-62
2021/12/22 03:58:07;;;;;;;;;;;-6.00;99.90;;;;;;5034094;28;20446;-62
2021/12/22 04:00:33;;;;;;;;;;;;;;;;;;5034333;28;19936;-62
2021/12/22 04:02:58;;;;;;;;;;;-5.70;99.90;;;;;;5034342;28;19904;-61
2021/12/22 04:05:24;;;;;;;;;;;;;;;;;;5035486;28;19956;-62
2021/12/22 04:07:50;;;;;;;;;;;-5.60;99.90;;;;;;5047833;28;19913;-62
2021/12/22 04:10:22;;;;;;;;;;;-4.50;99.90;;;;;;5047246;28;20470;-62
2021/12/22 04:12:53;;;;;;;;;;;-6.30;99.90;;;;;;5048631;28;19976;-62
2021/12/22 04:15:20;;;;;;;;;;;-4.10;99.90;;;;;;5043918;28;19909;-61
2021/12/22 04:17:45;;;;;;;;;;;-6.20;99.90;;;;;;5034569;28;20355;-60
2021/12/22 04:20:11;;;;;;;;;;;-6.70;99.90;;;;;;5042547;28;19905;-63
2021/12/22 04:22:37;;;;;;;;;;;-6.80;99.90;;;;;;5042725;28;19940;-63
2021/12/22 04:25:04;;;;;;;;;;;;;;;;;;5037947;28;19912;-57
2021/12/22 04:27:30;;;;;;;;;;;-6.30;99.90;;;;;;5034499;28;20035;-60
2021/12/22 04:29:56;;;;;;;;;;;;;;;;;;5033361;28;19909;-61
2021/12/22 04:32:22;;;;;;;;;;;-5.00;99.90;;;;;;5032782;28;20470;-60
2021/12/22 04:34:47;;;;;;;;;;;-6.20;99.90;;;;;;5033758;28;20028;-62
2021/12/22 04:37:13;;;;;;;;;;;-5.70;99.90;;;;;;5033259;28;19991;-62
2021/12/22 04:39:38;;;;;;;;;;;-6.50;99.90;;;;;;5032351;28;19909;-60
2021/12/22 04:42:04;;;;;;;;;;;-5.20;99.90;;;;;;5016094;28;19909;-60
2021/12/22 04:44:30;;;;;;;;;;;-4.80;99.90;;;;;;5033927;28;19909;-60
2021/12/22 04:46:55;;;;;;;;;;;-4.60;99.90;;;;;;5033680;28;20007;-61
2021/12/22 04:49:21;;;;;;;;;;;-4.30;99.90;;;;;;5033063;28;20367;-61
2021/12/22 04:51:52;;;;;;;;;;;-5.00;99.90;;;;;;5015659;28;19995;-61
2021/12/22 04:54:30;;;;;;;;;;;-4.80;99.90;;;;;;5015507;28;19909;-60
2021/12/22 04:56:57;;;;;;;;;;;-5.00;99.90;;;;;;5033739;28;19909;-61
2021/12/22 04:59:23;;;;;;;;;;;-5.00;99.90;;;;;;5033148;28;19985;-59
2021/12/22 05:01:48;;;;;;;;;;;-4.70;99.90;;;;;;5033614;28;19941;-61
2021/12/22 05:04:14;;;;;;;;;;;-6.00;99.90;;;;;;5033429;28;19913;-62
2021/12/22 05:06:39;;;;;;;;;;;-5.40;99.90;;;;;;5033437;28;19917;-63
2021/12/22 05:09:06;;;;;;;;;;;-5.40;99.90;;;;;;5035833;28;19955;-61
2021/12/22 05:11:31;;;;;;;;;;;-6.00;99.90;;;;;;5040363;28;19920;-61
2021/12/22 05:13:57;;;;;;;;;;;-5.40;99.90;;;;;;5042680;28;19909;-60
2021/12/22 05:16:22;;;;;;;;;;;-4.90;99.90;;;;;;5040904;28;19905;-62
2021/12/22 05:18:57;;;;;;;;;;;-5.50;99.90;;;;;;5043796;28;19915;-61
2021/12/22 05:21:22;;;;;;;;;;;;;;;;;;5044485;28;19912;-62
2021/12/22 05:23:48;;;;;;;;;;;-5.10;99.90;;;;;;5042814;28;19905;-62
2021/12/22 05:26:14;;;;;;;;;;;-4.90;99.90;;;;;;5042765;28;19917;-64
2021/12/22 05:28:40;;;;;;;;;;;-6.00;99.90;;;;;;5041466;28;20027;-61
2021/12/22 05:31:05;;;;;;;;;;;-6.90;99.90;;;;;;5032841;28;19913;-62
2021/12/22 05:33:31;;;;;;;;;;;-4.80;99.90;;;;;;5032433;28;20401;-61
2021/12/22 05:35:56;;;;;;;;;;;-5.30;99.90;;;;;;5031812;28;19931;-62
2021/12/22 05:38:22;;;;;;;;;;;-5.10;99.90;;;;;;5032305;28;20375;-62
2021/12/22 05:40:47;;;;;;;;;;;-5.50;99.90;;;;;;5032520;28;19913;-62
2021/12/22 05:43:13;;;;;;;;;;;;;;;;;;5031820;28;19959;-62
2021/12/22 05:45:39;;;;;;;;;;;-6.00;99.90;;;;;;5032038;28;19923;-61
2021/12/22 05:48:05;;;;;;;;;;;-5.80;99.90;;;;;;5032051;28;19909;-62
2021/12/22 05:50:30;;;;;;;;;;;-6.10;99.90;;;;;;5032058;28;19905;-63
2021/12/22 05:52:56;;;;;;;;;;;-5.70;99.90;;;;;;5014959;28;19909;-61
2021/12/22 05:55:21;;;;;;;;;;;-5.70;99.90;;;;;;5032494;28;19909;-61
2021/12/22 05:57:47;;;;;;;;;;;-6.40;99.90;;;;;;5032538;28;19909;-62
2021/12/22 06:00:13;;;;;;;;;;;-5.20;99.90;;;;;;5031199;28;19954;-62
2021/12/22 06:02:39;;;;;;;;;;;;;;;;;;5032117;28;19916;-61
2021/12/22 06:05:05;;;;;;;;;;;-5.40;99.90;;;;;;5032603;28;19905;-60
2021/12/22 06:07:30;;;;;;;;;;;-6.60;99.90;;;;;;5033103;28;19919;-62
2021/12/22 06:09:56;;;;;;;;;;;-6.20;99.90;;;;;;5014168;28;19917;-61
2021/12/22 06:12:22;;;;;;;;;;;-6.90;99.90;;;;;;5032425;28;19916;-60
2021/12/22 06:14:47;;;;;;;;;;;-5.50;99.90;;;;;;5031593;28;19909;-61
2021/12/22 06:17:13;;;;;;;;;;;-6.50;99.90;;;;;;5032089;28;19909;-62
2021/12/22 06:19:39;;;;;;;;;;;-5.60;99.90;;;;;;5031622;28;19905;-61
2021/12/22 06:22:04;;;;;;;;;;;-6.50;99.90;;;;;;5030668;28;19912;-62
2021/12/22 06:24:30;;;;;;;;;;;-6.20;99.90;;;;;;5031761;28;19919;-63
2021/12/22 06:26:57;;;;;;;;;;;-6.00;99.90;;;;;;5021690;28;19913;-66
2021/12/22 06:29:22;;;;;;;;;;;-6.30;99.90;;;;;;5016552;28;20003;-66
2021/12/22 06:31:48;;;;;;;;;;;-5.90;99.90;;;;;;5021690;28;19996;-66
2021/12/22 06:34:13;;;;;;;;;;;-6.10;99.90;;;;;;5032296;28;20004;-68
2021/12/22 06:36:39;;;;;;;;;;;-6.50;99.90;;;;;;5029041;28;20570;-73
2021/12/22 06:39:04;;;;;;;;;;;-7.20;99.90;;;;;;5030921;28;19916;-72
2021/12/22 06:41:30;;;;;;;;;;;-6.60;99.90;;;;;;5031673;28;19917;-73
2021/12/22 06:43:56;;;;;;;;;;;-6.90;99.90;;;;;;5031463;28;19909;-73
2021/12/22 06:46:21;;;;;;;;;;;-6.40;99.90;;;;;;5031129;28;19921;-72
2021/12/22 06:48:47;;;;;;;;;;;-6.40;99.90;;;;;;5031650;28;19916;-72
2021/12/22 06:51:12;;;;;;;;;;;-5.10;99.90;;;;;;5031023;28;19909;-72
2021/12/22 06:53:38;;;;;;;;;;;-6.10;99.90;;;;;;5031190;28;19924;-71
2021/12/22 06:56:04;;;;;;;;;;;-5.30;99.90;;;;;;5031130;28;19909;-73
2021/12/22 06:58:29;;;;;;;;;;;-6.30;99.90;;;;;;5027645;28;19905;-73
2021/12/22 07:00:55;;;;;;;;;;;-6.20;99.90;;;;;;5029437;28;19909;-74
2021/12/22 07:03:21;;;;;;;;;;;-7.10;99.90;;;;;;5031140;28;19913;-73
2021/12/22 07:05:47;;;;;;;;;;;-6.70;99.90;;;;;;5030871;28;19920;-74
2021/12/22 07:08:12;;;;;;;;;;;-6.20;99.90;;;;;;5029656;28;19909;-73
2021/12/22 07:10:38;;;;;;;;;;;-7.30;99.90;;;;;;5020133;28;19955;-73
2021/12/22 07:13:03;;;;;;;;;;;-6.40;99.90;;;;;;5032496;28;19910;-67
2021/12/22 07:15:29;;;;;;;;;;;-7.50;99.90;;;;;;5013838;28;19905;-67
2021/12/22 07:17:55;;;;;;;;;;;-6.30;99.90;;;;;;5030779;28;20019;-62
2021/12/22 07:20:21;;;;;;;;;;;-6.90;99.90;;;;;;5031082;28;20038;-65
2021/12/22 07:22:47;;;;;;;;;;;-6.80;99.90;;;;;;5031898;28;19943;-63
2021/12/22 07:25:15;;;;;;;;;;;-6.20;99.90;;;;;;5033100;28;19905;-68
2021/12/22 07:27:40;;;;;;;;;;;-5.90;99.90;;;;;;5028834;28;20043;-69
2021/12/22 07:30:06;;;;;;;;;;;-6.50;99.90;;;;;;5013621;28;20382;-69
2021/12/22 07:32:32;;;;;;;;;;;-5.90;99.90;;;;;;5035917;28;19917;-69
2021/12/22 07:35:00;;;;;;;;;;;-6.40;99.90;;;;;;5036248;28;20062;-68
2021/12/22 07:37:26;;;;;;;;;;;;;;;;;;5032931;28;19911;-69
2021/12/22 07:39:52;;;;;;;;;;;-5.00;99.90;;;;;;5036685;28;19905;-69
2021/12/22 07:42:17;;;;;;;;;;;-5.60;99.90;;;;;;5036937;28;19909;-69
2021/12/22 07:44:43;;;;;;;;;;;-6.40;99.90;;;;;;5036514;28;19909;-68
2021/12/22 07:47:08;;;;;;;;;;;-6.10;99.90;;;;;;5036662;28;19913;-67
2021/12/22 07:49:34;;;;;;;;;;;-5.10;99.90;;;;;;5019745;28;20329;-69
2021/12/22 07:51:59;;;;;;;;;;;-5.60;99.90;;;;;;5021091;28;19910;-68
2021/12/22 07:54:25;;;;;;;;;;;-4.60;99.90;;;;;;5017046;28;19917;-68
2021/12/22 07:56:50;;;;;;;;;;;-3.90;99.90;;;;;;5017420;28;19917;-67
2021/12/22 07:59:16;;;;;;;;;;;-4.00;99.90;;;;;;5032225;28;19913;-69
2021/12/22 08:01:42;;;;;;;;;;;-0.80;99.90;;;;;;5018054;28;20359;-69
2021/12/22 08:04:08;;;;;;;;;;;-1.30;99.90;;;;;;5016575;28;19912;-69
2021/12/22 08:06:34;;;;;;;;;;;-1.10;99.90;;;;;;5034578;28;19913;-68
2021/12/22 08:09:00;;;;;;;;;;;-0.90;99.90;;;;;;5033769;28;19916;-67
2021/12/22 08:11:25;;;;;;;;;;;-0.90;99.90;;;;;;5034440;28;19909;-66
2021/12/22 08:13:51;;;;;;;;;;;-0.60;99.90;;;;;;5034079;28;20008;-70
2021/12/22 08:16:16;;;;;;;;;;;-0.40;99.90;;;;;;5033519;28;20302;-66
2021/12/22 08:18:42;;;;;;;;;;;-0.40;99.90;;;;;;5034256;28;19915;-65
2021/12/22 08:21:07;;;;;;;;;;;-1.50;99.90;;;;;;5034404;28;19909;-66
2021/12/22 08:23:33;;;;;;;;;;;-0.40;99.90;;;;;;5049768;28;20358;-66
2021/12/22 08:25:58;;;;;;;;;;;-1.40;99.90;;;;;;5034255;28;19949;-67
2021/12/22 08:28:24;;;;;;;;;;;-1.40;99.90;;;;;;5033718;28;19916;-65
2021/12/22 08:30:49;;;;;;;;;;;-2.30;99.90;;;;;;5036547;28;19913;-66
2021/12/22 08:33:26;;;;;;;;;;;-1.80;99.90;;;;;;5034231;28;19940;-62
2021/12/22 08:38:58;;;;;;;;;;;-1.80;99.90;;;;;;5050695;22;20511;-68
2021/12/22 08:41:24;;;;;;;;;;;;;;;;;;5055944;28;19959;-71
2021/12/22 08:43:51;;;;;;;;;;;-3.20;99.90;;;;;;5048724;28;20325;-71
2021/12/22 08:46:16;;;;;;;;;;;-1.10;99.90;;;;;;5034103;28;19924;-73
2021/12/22 08:48:42;;;;;;;;;;;-2.70;99.90;;;;;;5034294;28;20291;-71
2021/12/22 08:51:08;;;;;;;;;;;-2.20;99.90;;;;;;5053415;28;19938;-74
2021/12/22 08:53:33;;;;;;;;;;;-2.90;99.90;;;;;;5053666;28;19998;-74
2021/12/22 08:55:59;;;;;;;;;;;-1.50;99.90;;;;;;5053567;28;20059;-73
2021/12/22 08:58:24;;;;;;;;;;;-1.90;99.90;;;;;;5053471;28;20007;-74
2021/12/22 09:00:50;;;;;;;;;;;;;;;;;;5053633;28;19909;-75
2021/12/22 09:03:16;;;;;;;;;;;-1.80;99.90;;;;;;5053961;28;19905;-74
2021/12/22 09:05:41;;;;;;;;;;;-1.40;99.90;;;;;;5053705;28;19952;-74
2021/12/22 09:08:07;;;;;;;;;;;-1.40;99.90;;;;;;5052947;28;20128;-74
2021/12/22 09:10:32;;;;;;;;;;;-2.20;99.90;;;;;;5034634;28;19912;-76
2021/12/22 09:12:58;;;;;;;;;;;-1.60;99.90;;;;;;5052784;28;19962;-74
2021/12/22 09:15:24;;;;;;;;;;;-0.80;99.90;;;;;;5053139;28;19928;-74
2021/12/22 09:17:49;;;;;;;;;;;-0.50;99.90;;;;;;5053518;28;19921;-74
2021/12/22 09:20:15;;;;;;;;;;;1.50;99.90;;;;;;5052783;28;19951;-75
2021/12/22 09:22:41;;;;;;;;;;;1.00;99.90;;;;;;5055296;28;19916;-74
2021/12/22 09:25:08;;;;;;;;;;;0.70;99.90;;;;;;5054580;28;20297;-75
2021/12/22 09:27:33;;;;;;;;;;;0.10;99.90;;;;;;5053211;28;19909;-76
2021/12/22 09:29:59;;;;;;;;;;;-0.40;99.90;;;;;;5033401;28;19995;-74
2021/12/22 09:32:25;;;;;;;;;;;0.70;99.90;;;;;;5053044;28;19908;-73
2021/12/22 09:34:50;;;;;;;;;;;1.00;99.90;;;;;;5052957;28;19916;-73
2021/12/22 09:37:16;;;;;;;;;;;1.50;99.90;;;;;;5053169;28;19912;-73
2021/12/22 09:39:42;;;;;;;;;;;1.30;99.90;;;;;;5052132;28;19917;-73
2021/12/22 09:42:08;;;;;;;;;;;2.00;99.90;;;;;;5036112;28;20391;-72
2021/12/22 09:44:38;;;;;;;;;;;3.20;99.90;;;;;;5043189;28;19933;-75
2021/12/22 09:47:04;;;;;;;;;;;3.10;99.90;;;;;;5044393;28;19915;-76
2021/12/22 09:49:47;;;;;;;;;;;;;;;;;;5045908;28;19912;-76
2021/12/22 09:52:19;;;;;;;;;;;3.40;99.90;;;;;;5037396;28;19905;-76
2021/12/22 09:54:49;;;;;;;;;;;4.20;99.90;;;;;;5036055;28;20000;-72
2021/12/22 09:57:17;;;;;;;;;;;5.10;99.90;;;;;;5047271;28;19909;-76
2021/12/22 09:59:43;;;;;;;;;;;4.20;99.90;;;;;;5031826;28;19936;-76
2021/12/22 10:02:09;;;;;;;;;;;3.80;99.90;;;;;;5053828;28;19923;-75
2021/12/22 10:04:34;;;;;;;;;;;2.60;99.90;;;;;;5054960;28;20428;-76
2021/12/22 10:07:01;;;;;;;;;;;3.70;99.90;;;;;;5052320;28;20017;-75
2021/12/22 10:09:26;;;;;;;;;;;3.80;99.90;;;;;;5051541;28;19912;-75
2021/12/22 10:11:52;;;;;;;;;;;3.80;99.90;;;;;;5052629;28;19909;-76
2021/12/22 10:14:19;;;;;;;;;;;2.50;99.90;;;;;;5048746;28;19916;-76
2021/12/22 10:16:49;;;;;;;;;;;4.00;99.90;;;;;;5042811;28;20584;-75
2021/12/22 10:19:15;;;;;;;;;;;2.90;99.90;;;;;;5041821;28;19928;-75
2021/12/22 10:22:13;;;;;;;;;;;4.70;99.90;;;;;;5047928;28;19905;-76
2021/12/22 10:24:40;;;;;;;;;;;4.10;99.90;;;;;;5016892;28;19915;-75
2021/12/22 10:27:11;;;;;;;;;;;3.90;99.90;;;;;;5041261;28;19923;-70
2021/12/22 10:29:37;;;;;;;;;;;3.90;99.90;;;;;;5046682;28;19916;-70
2021/12/22 10:32:07;;;;;;;;;;;4.50;99.90;;;;;;5047752;28;20282;-70
2021/12/22 10:34:33;;;;;;;;;;;2.60;99.90;;;;;;5045373;28;19905;-71
2021/12/22 10:36:58;;;;;;;;;;;4.10;99.90;;;;;;5043727;28;19962;-76
2021/12/22 10:39:28;;;;;;;;;;;5.10;99.90;;;;;;5030123;28;20286;-75
2021/12/22 10:42:04;;;;;;;;;;;3.40;99.90;;;;;;5049232;28;19913;-74
2021/12/22 10:44:29;;;;;;;;;;;;;;;;;;5049424;28;19948;-76
2021/12/22 10:47:11;;;;;;;;;;;3.90;99.90;;;;;;5044963;28;20492;-73
2021/12/22 10:49:37;;;;;;;;;;;5.70;99.90;;;;;;5042404;28;19940;-72
2021/12/22 10:52:03;;;;;;;;;;;7.10;99.70;;;;;;5029650;28;19909;-76
2021/12/22 10:54:39;;;;;;;;;;;6.60;99.70;;;;;;5019991;28;20282;-75
2021/12/22 10:57:08;;;;;;;;;;;6.80;97.20;;;;;;5042653;28;19952;-74
2021/12/22 10:59:40;;;;;;;;;;;7.50;96.10;;;;;;5050869;28;19940;-74
2021/12/22 11:02:07;;;;;;;;;;;7.90;95.10;;;;;;5052573;28;19909;-74
2021/12/22 11:04:34;;;;;;;;;;;8.10;97.70;;;;;;5051413;28;20430;-75
2021/12/22 11:07:12;;;;;;;;;;;8.30;95.60;;;;;;5053393;28;20074;-76
2021/12/22 11:09:38;;;;;;;;;;;10.30;93.90;;;;;;5039724;28;19996;-76
2021/12/22 11:12:04;;;;;;;;;;;;;;;;;;5047464;28;20008;-76
2021/12/22 11:14:33;;;;;;;;;;;8.90;94.30;;;;;;5055861;28;19954;-75
2021/12/22 11:17:09;;;;;;;;;;;6.80;93.70;;;;;;5027738;28;19976;-74
2021/12/22 11:19:35;;;;;;;;;;;;;;;;;;5053697;28;19912;-73
2021/12/22 11:22:13;;;;;;;;;;;10.00;91.70;;;;;;5052682;28;20309;-72
2021/12/22 11:24:47;;;;;;;;;;;11.20;90.10;;;;;;5051544;28;19909;-72
2021/12/22 11:27:15;;;;;;;;;;;7.60;92.30;;;;;;5027151;28;19952;-77
2021/12/22 11:29:42;;;;;;;;;;;7.50;93.40;;;;;;5049602;28;19954;-75
2021/12/22 11:32:08;;;;;;;;;;;6.80;93.20;;;;;;5035746;28;19997;-74
2021/12/22 11:34:38;;;;;;;;;;;8.80;94.60;;;;;;5035066;28;19909;-75
2021/12/22 11:37:07;;;;;;;;;;;6.80;93.80;;;;;;5034837;28;19996;-76
2021/12/22 11:39:33;;;;;;;;;;;8.00;92.00;;;;;;5048083;28;20043;-75
2021/12/22 11:42:02;;;;;;;;;;;8.30;91.50;;;;;;5037194;28;19959;-75
2021/12/22 11:44:28;;;;;;;;;;;;;;;;;;5055282;28;19904;-76
2021/12/22 11:46:58;;;;;;;;;;;8.40;92.00;;;;;;5055109;28;19916;-76
2021/12/22 11:49:24;;;;;;;;;;;9.70;91.50;;;;;;5053751;28;20294;-76
2021/12/22 11:51:50;;;;;;;;;;;9.80;91.00;;;;;;5055062;28;19913;-76
2021/12/22 11:54:16;;;;;;;;;;;9.60;89.20;;;;;;5054864;28;20107;-72
2021/12/22 11:56:42;;;;;;;;;;;;;;;;;;5054717;28;19908;-74
2021/12/22 11:59:24;;;;;;;;;;;9.70;87.60;;;;;;5054378;28;20333;-73
2021/12/22 12:02:08;;;;;;;;;;;10.90;86.50;;;;;;5056013;28;19927;-73
2021/12/22 12:04:34;;;;;;;;;;;9.70;87.90;;;;;;5056077;28;19905;-74
2021/12/22 12:07:00;;;;;;;;;;;8.50;87.20;;;;;;5037500;28;19915;-73
2021/12/22 12:09:29;;;;;;;;;;;8.70;88.70;;;;;;5053809;28;19963;-73
2021/12/22 12:11:56;;;;;;;;;;;8.70;89.20;;;;;;5057160;28;19909;-74
2021/12/22 12:14:38;;;;;;;;;;;10.10;90.20;;;;;;5056923;28;19909;-74
2021/12/22 12:23:15;;;;;;;;;;;5.70;94.70;;;;;;5036870;28;20443;-74
2021/12/22 12:25:41;;;;;;;;;;;6.00;95.80;;;;;;5036825;28;20386;-74
2021/12/22 12:28:14;;;;;;;;;;;4.90;95.70;;;;;;5037378;28;19909;-74
2021/12/22 12:30:47;;;;;;;;;;;5.90;95.90;;;;;;5036935;28;19913;-70
2021/12/22 12:33:32;;;;;;;;;;;5.10;97.00;;;;;;5036906;28;20378;-78
2021/12/22 12:36:00;;;;;;;;;;;5.40;96.70;;;;;;5045496;28;19920;-81
2021/12/22 12:38:41;;;;;;;;;;;5.60;95.70;;;;;;5036718;28;19945;-81
2021/12/22 12:41:11;;;;;;;;;;;6.60;95.20;;;;;;5051412;28;19955;-81
2021/12/22 12:43:51;;;;;;;;;;;6.10;93.20;;;;;;5034490;28;20385;-79
2021/12/22 12:46:29;;;;;;;;;;;7.40;93.70;;;;;;5050432;28;19916;-81
2021/12/22 12:49:07;;;;;;;;;;;8.30;91.60;;;;;;5054971;28;19940;-81
2021/12/22 12:51:35;;;;;;;;;;;8.00;92.20;;;;;;5053020;28;19905;-82
2021/12/22 12:54:02;;;;;;;;;;;8.70;91.30;;;;;;5048503;28;19969;-81
2021/12/22 12:56:39;;;;;;;;;;;8.90;91.40;;;;;;5057251;28;19955;-74
2021/12/22 12:59:08;;;;;;;;;;;8.40;91.70;;;;;;5055676;28;19904;-74
2021/12/22 13:01:46;;;;;;;;;;;9.40;90.90;;;;;;5056297;28;19913;-73
2021/12/22 13:04:23;;;;;;;;;;;10.70;87.10;;;;;;5057693;28;19919;-74
2021/12/22 13:06:48;;;;;;;;;;;9.70;88.40;;;;;;5038732;28;19932;-73
2021/12/22 13:09:24;;;;;;;;;;;10.50;89.60;;;;;;5056300;28;19911;-77
2021/12/22 13:12:13;;;;;;;;;;;11.10;86.50;;;;;;5057206;28;20362;-78
2021/12/22 13:17:27;;;;;;;;;;;8.60;90.20;;;;;;5049918;28;19919;-79
2021/12/22 13:19:55;;;;;;;;;;;8.80;91.10;;;;;;5045330;28;19913;-79
2021/12/22 13:22:28;;;;;;;;;;;9.90;89.20;;;;;;5051392;28;20466;-80
2021/12/22 13:25:05;;;;;;;;;;;10.30;89.90;;;;;;5056134;28;19905;-79
2021/12/22 13:27:31;;;;;;;;;;;10.30;90.10;;;;;;5065287;28;20370;-79
2021/12/22 13:30:23;;;;;;;;;;;9.40;89.70;;;;;;5063025;28;19994;-81
2021/12/22 13:32:54;;;;;;;;;;;10.20;89.20;;;;;;5057242;28;20000;-79
2021/12/22 13:35:30;;;;;;;;;;;10.40;87.90;;;;;;5043949;28;19905;-83
2021/12/22 13:37:56;;;;;;;;;;;9.00;91.70;;;;;;5046292;28;19933;-79
2021/12/22 13:40:31;;;;;;;;;;;8.80;91.10;;;;;;5045016;28;19917;-79
2021/12/22 13:42:57;;;;;;;;;;;;;;;;;;5031408;28;19958;-80
2021/12/22 13:45:23;;;;;;;;;;;8.90;91.40;;;;;;5047071;28;19905;-81
2021/12/22 13:47:48;;;;;;;;;;;9.00;90.90;;;;;;5048882;28;19923;-80
2021/12/22 13:50:14;;;;;;;;;;;9.40;90.80;;;;;;5046332;28;19909;-78
2021/12/22 13:52:39;;;;;;;;;;;;;;;;;;5032215;28;19949;-79
2021/12/22 13:55:05;;;;;;;;;;;8.00;91.50;;;;;;5045783;28;19927;-76
2021/12/22 13:57:31;;;;;;;;;;;7.50;92.60;;;;;;5041775;28;19912;-79
2021/12/22 13:59:56;;;;;;;;;;;7.60;92.80;;;;;;5047352;28;19913;-78
2021/12/22 14:02:33;;;;;;;;;;;8.60;93.40;;;;;;5040202;28;20035;-77
2021/12/22 14:05:11;;;;;;;;;;;8.00;93.40;;;;;;5040862;28;19952;-77
2021/12/22 14:07:36;;;;;;;;;;;6.20;93.40;;;;;;5038990;28;19909;-78
2021/12/22 14:10:08;;;;;;;;;;;7.80;93.50;;;;;;5040661;28;19905;-79
2021/12/22 14:12:33;;;;;;;;;;;7.40;93.70;;;;;;5040977;28;19944;-78
2021/12/22 14:14:59;;;;;;;;;;;7.50;93.70;;;;;;5038970;28;19916;-80
2021/12/22 14:17:33;;;;;;;;;;;7.70;93.60;;;;;;5057748;28;19952;-80
2021/12/22 14:20:00;;;;;;;;;;;;;;;;;;5058548;28;20011;-82
2021/12/22 14:22:45;;;;;;;;;;;6.80;93.60;;;;;;5039847;28;19912;-80
2021/12/22 14:25:13;;;;;;;;;;;6.30;94.00;;;;;;5057853;28;19905;-80
2021/12/22 14:27:53;;;;;;;;;;;6.80;94.90;;;;;;5039579;28;20482;-81
2021/12/22 14:30:20;;;;;;;;;;;4.90;95.00;;;;;;5047820;28;19944;-82
2021/12/22 14:32:52;;;;;;;;;;;6.10;96.40;;;;;;5039944;28;20378;-80
2021/12/22 14:35:19;;;;;;;;;;;5.00;96.80;;;;;;5047879;28;19909;-81
2021/12/22 14:37:45;;;;;;;;;;;5.40;97.40;;;;;;5055118;28;19912;-81
2021/12/22 14:40:14;;;;;;;;;;;4.70;98.10;;;;;;5062157;22;19921;-76
2021/12/22 14:42:39;;;;;;;;;;;4.20;98.70;;;;;;5032530;28;19905;-75
2021/12/22 14:45:17;;;;;;;;;;;3.40;99.20;;;;;;5032365;28;20366;-76
2021/12/22 14:47:42;;;;;;;;;;;2.70;99.20;;;;;;5032546;28;20012;-76
2021/12/22 14:50:12;;;;;;;;;;;4.60;99.90;;;;;;5032436;28;19960;-77
2021/12/22 14:52:52;;;;;;;;;;;3.80;99.90;;;;;;5050139;28;19918;-75
2021/12/22 14:55:32;;;;;;;;;;;3.20;99.90;;;;;;5050573;28;19913;-75
2021/12/22 14:57:58;;;;;;;;;;;3.90;99.90;;;;;;5049394;28;19908;-72
2021/12/22 15:00:23;;;;;;;;;;;3.00;99.90;;;;;;5041403;28;19920;-75
2021/12/22 15:02:49;;;;;;;;;;;3.50;99.90;;;;;;5033392;28;20619;-74